Polfoss — V2PN7 — position and weather

sailwx.info

Track history (hours):
 
Tides and Currents Weather Stations Pressure Air Temp Water Temp Dewpoint Dewpoint Depression Visibility Wind Speed Wind Dir Waves Ship Positions

Polfoss

Last reported at 2014-Oct-21 03:33 UTC. Time now 2014-Oct-21 03:58 UTC.
Position N 52°28' E 004°40'.

Length 82 m; draft 6.5 m.

Type: Cargo ship. MMSI: 305081000.

Date/timePositionNaut miles runAvg speedWind from/ knotsBaromVisibWave heightAir tempDewpointWater temp
2014-Oct-21 03:33N 52°28' E 004°40'0 0.0
2014-Oct-21 02:33N 52°28' E 004°40'0 0.0
2014-Oct-21 01:33N 52°28' E 004°40'0 0.0
2014-Oct-21 00:33N 52°28' E 004°40'0 0.0
2014-Oct-20 23:33N 52°28' E 004°40'0 0.0
2014-Oct-20 22:33N 52°28' E 004°40'0 0.0
2014-Oct-20 21:33N 52°28' E 004°40'0 0.0
2014-Oct-20 20:33N 52°28' E 004°40'0 0.0
2014-Oct-20 19:33N 52°28' E 004°40'0 0.0
2014-Oct-20 18:33N 52°28' E 004°40'0 0.0
2014-Oct-20 17:33N 52°28' E 004°40'0 0.0
2014-Oct-20 16:33N 52°28' E 004°40'0 0.0
2014-Oct-20 15:33N 52°28' E 004°40'0 0.0
2014-Oct-20 14:33N 52°28' E 004°40'0 0.0
2014-Oct-20 13:33N 52°28' E 004°40'0 0.0
2014-Oct-20 12:33N 52°28' E 004°40'0 0.0
2014-Oct-20 11:33N 52°28' E 004°40'0 0.0
2014-Oct-20 10:33N 52°28' E 004°40'0 0.0
2014-Oct-20 09:33N 52°28' E 004°40'0 0.0
2014-Oct-20 08:33N 52°28' E 004°40'0 0.0
2014-Oct-20 07:34N 52°28' E 004°40'0 0.0
2014-Oct-20 06:33N 52°28' E 004°40'0 0.0
2014-Oct-20 05:33N 52°28' E 004°40'2 2.4
2014-Oct-20 04:33N 52°28' E 004°36'6 5.6
2014-Oct-20 03:33N 52°31' E 004°28'1111.1
2014-Oct-20 02:33N 52°42' E 004°29'8210.2
2014-Oct-19 18:32N 54°02' E 004°51'24611.7
2014-Oct-18 21:30N 58°06' E 005°56'910.0
2014-Oct-18 20:33N 58°16' E 005°58'1110.8
2014-Oct-18 19:33N 58°26' E 005°59'0 0.2
2014-Oct-18 18:33N 58°26' E 005°59'3 3.3
2014-Oct-18 17:34N 58°23' E 005°60'1010.2
2014-Oct-18 16:33N 58°29' E 005°44'2210.8
2014-Oct-18 14:33N 58°48' E 005°23'1110.5
2014-Oct-18 13:33N 58°58' E 005°20'1010.4
2014-Oct-18 12:33N 59°09' E 005°17'0 0.3
2014-Oct-18 11:33N 59°09' E 005°16'4 4.1
2014-Oct-18 10:33N 59°12' E 005°20'1212.3
2014-Oct-18 09:33N 59°24' E 005°16'360 8.0
2014-Oct-16 12:33N 64°46' E 011°02'1313.4
2014-Oct-16 11:33N 64°55' E 011°25'1413.8
2014-Oct-16 10:33N 65°05' E 011°47'8013.2
2014-Oct-16 04:31N 66°20' E 012°57'  
2014-Oct-13 12:25N 70°31' E 022°57'1214.1
2014-Oct-13 11:33N 70°38' E 023°27'4 3.7
2014-Oct-13 10:24N 70°38' E 023°40'0 0.0
2014-Oct-13 09:32N 70°38' E 023°40'0 0.0
2014-Oct-13 08:26N 70°38' E 023°40'1 1.3
2014-Oct-13 07:31N 70°38' E 023°36'180 6.7
2014-Oct-12 04:32N 70°08' E 032°26'1414.3
2014-Oct-12 03:32N 70°01' E 033°02'1414.3
2014-Oct-12 02:32N 69°52' E 033°35'1514.6
2014-Oct-12 01:32N 69°37' E 033°36'1515.1
2014-Oct-12 00:32N 69°22' E 033°36'29 5.7
2014-Oct-11 19:32N 68°56' E 033°02'0 0.0
2014-Oct-11 14:29N 68°56' E 033°02'0 0.0
2014-Oct-11 09:20N 68°56' E 033°02'  
Track history (hours):
 
Tides and Currents Weather Stations Pressure Air Temp Water Temp Dewpoint Dewpoint Depression Visibility Wind Speed Wind Dir Waves Ship Positions

Polfoss

Last reported at 2014-Oct-21 03:33 UTC. Time now 2014-Oct-21 03:58 UTC.
Position N 52°28' E 004°40'.

Length 82 m; draft 6.5 m.

Type: Cargo ship. MMSI: 305081000.

Date/timePositionNaut miles runAvg speedWind from/ knotsBaromVisibWave heightAir tempDewpointWater temp
2014-Oct-21 03:33N 52°28' E 004°40'0 0.0
2014-Oct-21 02:33N 52°28' E 004°40'0 0.0
2014-Oct-21 01:33N 52°28' E 004°40'0 0.0
2014-Oct-21 00:33N 52°28' E 004°40'0 0.0
2014-Oct-20 23:33N 52°28' E 004°40'0 0.0
2014-Oct-20 22:33N 52°28' E 004°40'0 0.0
2014-Oct-20 21:33N 52°28' E 004°40'0 0.0
2014-Oct-20 20:33N 52°28' E 004°40'0 0.0
2014-Oct-20 19:33N 52°28' E 004°40'0 0.0
2014-Oct-20 18:33N 52°28' E 004°40'0 0.0
2014-Oct-20 17:33N 52°28' E 004°40'0 0.0
2014-Oct-20 16:33N 52°28' E 004°40'0 0.0
2014-Oct-20 15:33N 52°28' E 004°40'0 0.0
2014-Oct-20 14:33N 52°28' E 004°40'0 0.0
2014-Oct-20 13:33N 52°28' E 004°40'0 0.0
2014-Oct-20 12:33N 52°28' E 004°40'0 0.0
2014-Oct-20 11:33N 52°28' E 004°40'0 0.0
2014-Oct-20 10:33N 52°28' E 004°40'0 0.0
2014-Oct-20 09:33N 52°28' E 004°40'0 0.0
2014-Oct-20 08:33N 52°28' E 004°40'0 0.0
2014-Oct-20 07:34N 52°28' E 004°40'0 0.0
2014-Oct-20 06:33N 52°28' E 004°40'0 0.0
2014-Oct-20 05:33N 52°28' E 004°40'2 2.4
2014-Oct-20 04:33N 52°28' E 004°36'6 5.6
2014-Oct-20 03:33N 52°31' E 004°28'1111.1
2014-Oct-20 02:33N 52°42' E 004°29'8210.2
2014-Oct-19 18:32N 54°02' E 004°51'24611.7
2014-Oct-18 21:30N 58°06' E 005°56'910.0
2014-Oct-18 20:33N 58°16' E 005°58'1110.8
2014-Oct-18 19:33N 58°26' E 005°59'0 0.2
2014-Oct-18 18:33N 58°26' E 005°59'3 3.3
2014-Oct-18 17:34N 58°23' E 005°60'1010.2
2014-Oct-18 16:33N 58°29' E 005°44'2210.8
2014-Oct-18 14:33N 58°48' E 005°23'1110.5
2014-Oct-18 13:33N 58°58' E 005°20'1010.4
2014-Oct-18 12:33N 59°09' E 005°17'0 0.3
2014-Oct-18 11:33N 59°09' E 005°16'4 4.1
2014-Oct-18 10:33N 59°12' E 005°20'1212.3
2014-Oct-18 09:33N 59°24' E 005°16'360 8.0
2014-Oct-16 12:33N 64°46' E 011°02'1313.4
2014-Oct-16 11:33N 64°55' E 011°25'1413.8
2014-Oct-16 10:33N 65°05' E 011°47'8013.2
2014-Oct-16 04:31N 66°20' E 012°57'  
2014-Oct-13 12:25N 70°31' E 022°57'1214.1
2014-Oct-13 11:33N 70°38' E 023°27'4 3.7
2014-Oct-13 10:24N 70°38' E 023°40'0 0.0
2014-Oct-13 09:32N 70°38' E 023°40'0 0.0
2014-Oct-13 08:26N 70°38' E 023°40'1 1.3
2014-Oct-13 07:31N 70°38' E 023°36'180 6.7
2014-Oct-12 04:32N 70°08' E 032°26'1414.3
2014-Oct-12 03:32N 70°01' E 033°02'1414.3
2014-Oct-12 02:32N 69°52' E 033°35'1514.6
2014-Oct-12 01:32N 69°37' E 033°36'1515.1
2014-Oct-12 00:32N 69°22' E 033°36'29 5.7
2014-Oct-11 19:32N 68°56' E 033°02'0 0.0
2014-Oct-11 14:29N 68°56' E 033°02'0 0.0
2014-Oct-11 09:20N 68°56' E 033°02'  

Dump ship's entire track history